Time;durP1;ratioP1;P1;durP2;ratioP2;P2;SDS_P1;SDS_P2;PMS_P1;PMS_P2;Temp;Humidity;BMP_temperature;BMP_pressure;BME280_temperature;BME280_humidity;BME280_pressure;Samples;Min_cycle;Max_cycle;Signal;HPM_P1;HPM_P2
2023/04/15 00:00:18;;;;;;;9.32;2.95;;;;;;;;;;4981594;28;20931;-63
2023/04/15 00:02:47;;;;;;;9.48;2.90;;;;;;;;;;4975554;28;20061;-64
2023/04/15 00:05:13;;;;;;;14.20;3.58;;;;;;;;;;4987793;28;20044;-71
2023/04/15 00:07:40;;;;;;;8.73;2.58;;;;;;;;;;4985835;28;20510;-64
2023/04/15 00:10:08;;;;;;;9.10;2.78;;;;;;;;;;4987851;28;20157;-64
2023/04/15 00:12:34;;;;;;;9.23;2.58;;;;;;;;;;4986052;28;20033;-64
2023/04/15 00:15:01;;;;;;;6.22;2.30;;;;;;;;;;4987116;28;20046;-66
2023/04/15 00:17:28;;;;;;;8.73;2.50;;;;;;;;;;4985238;28;20141;-65
2023/04/15 00:19:54;;;;;;;11.88;2.65;;;;;;;;;;4989037;28;20038;-64
2023/04/15 00:22:21;;;;;;;5.57;1.85;;;;;;;;;;4983715;28;20177;-65
2023/04/15 00:24:48;;;;;;;9.18;2.67;;;;;;;;;;4977028;28;20038;-65
2023/04/15 00:27:15;;;;;;;8.07;2.60;;;;;;;;;;4978456;28;20097;-65
2023/04/15 00:29:42;;;;;;;9.15;2.40;;;;;;;;;;4977668;28;20830;-64
2023/04/15 00:32:09;;;;;;;6.63;2.35;;;;;;;;;;4977430;28;20046;-64
2023/04/15 00:34:36;;;;;;;11.63;2.67;;;;;;;;;;4982787;28;20120;-66
2023/04/15 00:37:03;;;;;;;5.03;2.50;;;;;;;;;;4976911;28;20061;-65
2023/04/15 00:39:29;;;;;;;7.03;2.65;;;;;;;;;;4977250;28;20050;-66
2023/04/15 00:41:56;;;;;;;10.55;2.35;;;;;;;;;;4977071;28;20124;-65
2023/04/15 00:44:23;;;;;;;5.75;2.80;;;;;;;;;;4977269;28;20054;-65
2023/04/15 00:46:54;;;;;;;15.25;3.13;;;;;;;;;;4977267;28;20061;-66
2023/04/15 00:49:20;;;;;;;9.55;2.80;;;;;;;;;;4978677;28;20083;-66
2023/04/15 00:51:47;;;;;;;18.73;3.88;;;;;;;;;;4973142;28;20057;-66
2023/04/15 00:54:15;;;;;;;7.75;2.67;;;;;;;;;;4988356;28;20050;-63
2023/04/15 00:56:41;;;;;;;4.97;2.40;;;;;;;;;;4975502;28;20125;-64
2023/04/15 00:59:08;;;;;;;7.82;2.90;;;;;;;;;;4980948;28;20691;-65
2023/04/15 01:01:37;;;;;;;7.25;2.70;;;;;;;;;;4974013;28;20055;-63
2023/04/15 01:04:04;;;;;;;6.30;2.63;;;;;;;;;;4980241;28;20082;-62
2023/04/15 01:06:31;;;;;;;22.17;4.20;;;;;;;;;;4979994;28;20125;-64
2023/04/15 01:08:58;;;;;;;14.30;4.25;;;;;;;;;;4977762;28;20454;-63
2023/04/15 01:11:25;;;;;;;5.85;2.33;;;;;;;;;;4987631;28;20038;-63
2023/04/15 01:13:52;;;;;;;12.52;3.00;;;;;;;;;;4979757;28;20046;-66
2023/04/15 01:16:20;;;;;;;8.07;2.55;;;;;;;;;;4981929;28;20499;-65
2023/04/15 01:18:46;;;;;;;8.77;3.00;;;;;;;;;;4979919;28;20042;-63
2023/04/15 01:21:14;;;;;;;7.43;2.95;;;;;;;;;;4975424;28;20117;-65
2023/04/15 01:23:42;;;;;;;8.48;2.95;;;;;;;;;;4976881;28;20038;-64
2023/04/15 01:26:29;;;;;;;7.93;2.75;;;;;;;;;;4939199;28;21167;-64
2023/04/15 01:29:14;;;;;;;6.63;2.92;;;;;;;;;;4941867;29;20154;-65
2023/04/15 01:31:42;;;;;;;12.35;2.85;;;;;;;;;;4938596;28;20492;-65
2023/04/15 01:34:08;;;;;;;7.45;2.78;;;;;;;;;;4940032;28;20051;-67
2023/04/15 01:36:36;;;;;;;7.88;2.78;;;;;;;;;;4939243;28;20069;-64
2023/04/15 01:39:22;;;;;;;13.73;2.90;;;;;;;;;;4939391;28;20546;-65
2023/04/15 01:41:49;;;;;;;9.80;2.80;;;;;;;;;;4939139;28;20042;-64
2023/04/15 01:44:15;;;;;;;8.18;2.65;;;;;;;;;;4939689;28;20413;-64
2023/04/15 01:46:42;;;;;;;6.47;2.70;;;;;;;;;;4939990;28;20047;-66
2023/04/15 01:49:09;;;;;;;12.10;2.97;;;;;;;;;;4941132;28;20571;-65
2023/04/15 01:51:35;;;;;;;11.95;2.83;;;;;;;;;;4929464;28;20054;-65
2023/04/15 01:54:02;;;;;;;10.50;3.03;;;;;;;;;;4938025;28;20099;-66
2023/04/15 01:56:33;;;;;;;10.43;3.00;;;;;;;;;;4937097;28;20520;-65
2023/04/15 01:59:00;;;;;;;10.23;2.65;;;;;;;;;;4976613;28;20042;-64
2023/04/15 02:01:27;;;;;;;13.68;3.53;;;;;;;;;;4957854;28;20125;-65
2023/04/15 02:03:53;;;;;;;17.38;2.90;;;;;;;;;;4960404;28;20042;-66
2023/04/15 02:06:20;;;;;;;8.25;2.67;;;;;;;;;;4983402;28;20498;-67
2023/04/15 02:09:07;;;;;;;8.95;2.60;;;;;;;;;;4982895;28;20561;-67
2023/04/15 02:11:34;;;;;;;6.22;2.60;;;;;;;;;;4973900;28;20636;-65
2023/04/15 02:14:01;;;;;;;7.50;2.53;;;;;;;;;;4976366;28;20045;-66
2023/04/15 02:16:28;;;;;;;10.77;2.53;;;;;;;;;;4973419;28;20034;-66
2023/04/15 02:18:55;;;;;;;9.75;2.50;;;;;;;;;;4960760;28;20054;-65
2023/04/15 02:21:22;;;;;;;11.23;2.90;;;;;;;;;;4987222;28;20046;-66
2023/04/15 02:23:50;;;;;;;8.10;2.90;;;;;;;;;;4993099;28;20042;-66
2023/04/15 02:26:36;;;;;;;12.48;4.28;;;;;;;;;;4989738;28;20547;-67
2023/04/15 02:29:03;;;;;;;12.00;3.35;;;;;;;;;;4974904;28;20124;-64
2023/04/15 02:31:32;;;;;;;10.48;3.00;;;;;;;;;;4987737;28;20034;-66
2023/04/15 02:34:01;;;;;;;5.97;2.67;;;;;;;;;;4989730;28;20053;-66
2023/04/15 02:36:29;;;;;;;9.63;3.42;;;;;;;;;;4988553;28;20038;-64
2023/04/15 02:38:56;;;;;;;11.40;3.60;;;;;;;;;;4988945;28;20042;-66
2023/04/15 02:41:26;;;;;;;10.38;3.35;;;;;;;;;;4989176;28;20051;-68
2023/04/15 02:43:53;;;;;;;9.00;3.28;;;;;;;;;;4987436;28;20053;-65
2023/04/15 02:46:21;;;;;;;10.05;3.42;;;;;;;;;;4969820;28;20050;-65
2023/04/15 02:48:48;;;;;;;20.13;4.18;;;;;;;;;;4997278;28;20070;-67
2023/04/15 02:51:19;;;;;;;10.77;3.42;;;;;;;;;;4980975;28;20418;-66
2023/04/15 02:53:46;;;;;;;12.88;3.83;;;;;;;;;;4996539;28;20054;-64
2023/04/15 02:56:14;;;;;;;12.23;3.88;;;;;;;;;;4996320;28;20041;-63
2023/04/15 02:58:41;;;;;;;12.13;5.43;;;;;;;;;;4979695;28;20406;-66
2023/04/15 03:01:08;;;;;;;13.27;4.47;;;;;;;;;;4997194;28;20049;-65
2023/04/15 03:03:35;;;;;;;10.55;3.67;;;;;;;;;;4997277;28;20061;-65
2023/04/15 03:06:01;;;;;;;10.07;3.95;;;;;;;;;;4998506;28;20038;-65
2023/04/15 03:08:28;;;;;;;15.05;4.00;;;;;;;;;;4998824;28;20475;-64
2023/04/15 03:10:54;;;;;;;8.13;3.78;;;;;;;;;;4997354;28;20033;-65
2023/04/15 03:13:21;;;;;;;12.27;3.50;;;;;;;;;;4995733;28;20038;-66
2023/04/15 03:15:48;;;;;;;10.82;3.40;;;;;;;;;;4984929;28;20039;-64
2023/04/15 03:18:15;;;;;;;11.77;4.10;;;;;;;;;;4979914;28;20242;-64
2023/04/15 03:20:42;;;;;;;9.02;3.72;;;;;;;;;;4977686;28;20041;-67
2023/04/15 03:23:09;;;;;;;10.93;3.70;;;;;;;;;;4977550;28;20038;-65
2023/04/15 03:25:36;;;;;;;16.17;3.90;;;;;;;;;;4977478;28;20049;-66
2023/04/15 03:28:03;;;;;;;11.55;3.78;;;;;;;;;;4978039;28;20038;-66
2023/04/15 03:30:30;;;;;;;16.90;4.68;;;;;;;;;;4977565;28;20053;-66
2023/04/15 03:32:57;;;;;;;10.32;5.07;;;;;;;;;;4975134;28;20114;-66
2023/04/15 03:35:23;;;;;;;15.13;6.28;;;;;;;;;;4976812;28;20472;-66
2023/04/15 03:37:50;;;;;;;14.75;6.43;;;;;;;;;;4979078;28;20506;-66
2023/04/15 03:40:17;;;;;;;18.60;5.90;;;;;;;;;;4978868;28;20038;-65
2023/04/15 03:42:43;;;;;;;13.73;6.10;;;;;;;;;;4977337;28;20169;-69
2023/04/15 03:45:10;;;;;;;19.70;6.20;;;;;;;;;;4978056;28;20056;-66
2023/04/15 03:47:37;;;;;;;21.35;6.28;;;;;;;;;;4968728;28;20085;-66
2023/04/15 03:50:04;;;;;;;15.88;6.18;;;;;;;;;;4977818;28;20042;-64
2023/04/15 03:52:30;;;;;;;27.02;7.57;;;;;;;;;;4976721;28;20114;-64
2023/04/15 03:54:57;;;;;;;14.48;6.88;;;;;;;;;;4977197;28;20061;-66
2023/04/15 03:57:24;;;;;;;20.30;7.07;;;;;;;;;;4977367;28;20105;-66
2023/04/15 03:59:51;;;;;;;20.23;7.22;;;;;;;;;;4978430;28;20480;-65
2023/04/15 04:02:17;;;;;;;25.77;7.65;;;;;;;;;;4977799;28;20730;-65
2023/04/15 04:04:44;;;;;;;16.83;7.20;;;;;;;;;;4977352;28;20042;-66
2023/04/15 04:07:18;;;;;;;25.27;8.00;;;;;;;;;;4975103;28;20378;-66
2023/04/15 04:09:44;;;;;;;;;;;;;;;;;;4977201;28;20113;-65
2023/04/15 04:12:11;;;;;;;16.73;5.90;;;;;;;;;;4974314;28;19917;-66
2023/04/15 04:14:37;;;;;;;21.60;6.28;;;;;;;;;;4972089;28;20057;-66
2023/04/15 04:17:04;;;;;;;14.93;6.43;;;;;;;;;;4978482;28;20046;-66
2023/04/15 04:19:31;;;;;;;20.15;6.70;;;;;;;;;;4975795;28;20129;-65
2023/04/15 04:21:58;;;;;;;18.02;7.20;;;;;;;;;;4976850;28;20052;-66
2023/04/15 04:24:25;;;;;;;27.20;7.30;;;;;;;;;;4977914;28;20053;-66
2023/04/15 04:26:52;;;;;;;18.02;7.75;;;;;;;;;;4977903;28;20093;-65
2023/04/15 04:29:18;;;;;;;23.60;7.32;;;;;;;;;;4976621;28;20046;-65
2023/04/15 04:31:45;;;;;;;18.70;8.20;;;;;;;;;;4991687;28;20034;-65
2023/04/15 04:34:12;;;;;;;21.02;9.18;;;;;;;;;;4977972;28;20046;-65
2023/04/15 04:36:39;;;;;;;24.05;9.02;;;;;;;;;;4977376;28;20423;-65
2023/04/15 04:39:06;;;;;;;22.25;8.90;;;;;;;;;;4977354;28;20035;-67
2023/04/15 04:41:32;;;;;;;13.93;7.07;;;;;;;;;;4976650;28;20061;-67
2023/04/15 04:43:59;;;;;;;15.90;7.60;;;;;;;;;;4978139;28;20082;-65
2023/04/15 04:46:26;;;;;;;18.45;7.80;;;;;;;;;;4975736;28;20088;-66
2023/04/15 04:48:52;;;;;;;15.70;6.82;;;;;;;;;;4977470;28;20042;-64
2023/04/15 04:51:19;;;;;;;19.85;6.85;;;;;;;;;;4979032;28;20058;-65
2023/04/15 04:53:46;;;;;;;10.20;5.88;;;;;;;;;;4975002;28;21031;-68
2023/04/15 04:56:13;;;;;;;15.05;5.57;;;;;;;;;;4976340;28;20467;-67
2023/04/15 04:58:39;;;;;;;13.60;5.78;;;;;;;;;;4976449;28;20043;-67
2023/04/15 05:01:06;;;;;;;12.85;5.10;;;;;;;;;;4976863;28;20069;-67
2023/04/15 05:03:33;;;;;;;15.07;4.63;;;;;;;;;;4975819;28;20073;-66
2023/04/15 05:06:01;;;;;;;12.05;5.20;;;;;;;;;;4977208;28;20730;-67
2023/04/15 05:08:29;;;;;;;12.57;4.85;;;;;;;;;;4990800;28;20057;-67
2023/04/15 05:10:56;;;;;;;10.38;4.40;;;;;;;;;;4976822;28;20058;-66
2023/04/15 05:13:23;;;;;;;12.15;4.50;;;;;;;;;;4976826;28;20042;-67
2023/04/15 05:15:49;;;;;;;17.25;4.50;;;;;;;;;;4977841;28;20547;-67
2023/04/15 05:18:16;;;;;;;10.32;4.22;;;;;;;;;;4978525;28;20043;-66
2023/04/15 05:20:43;;;;;;;8.25;3.20;;;;;;;;;;4976907;28;20443;-67
2023/04/15 05:23:09;;;;;;;9.85;3.63;;;;;;;;;;4978303;28;20030;-67
2023/04/15 05:25:36;;;;;;;9.55;3.03;;;;;;;;;;4987419;28;20068;-67
2023/04/15 05:28:03;;;;;;;11.55;3.13;;;;;;;;;;4978976;28;20823;-66
2023/04/15 05:30:30;;;;;;;8.80;3.15;;;;;;;;;;4978484;28;20133;-66
2023/04/15 05:32:56;;;;;;;8.65;3.20;;;;;;;;;;4977475;28;20119;-68
2023/04/15 05:35:23;;;;;;;12.88;3.50;;;;;;;;;;4977744;28;20492;-66
2023/04/15 05:37:50;;;;;;;9.10;3.40;;;;;;;;;;4977034;28;20195;-65
2023/04/15 05:40:16;;;;;;;7.78;3.25;;;;;;;;;;4978013;28;20101;-66
2023/04/15 05:42:43;;;;;;;8.18;3.80;;;;;;;;;;4973705;28;20742;-65
2023/04/15 05:45:10;;;;;;;10.30;3.70;;;;;;;;;;4996329;28;20054;-67
2023/04/15 05:47:37;;;;;;;9.18;3.75;;;;;;;;;;4991607;28;20045;-66
2023/04/15 05:50:04;;;;;;;14.23;4.10;;;;;;;;;;4982068;28;20046;-70
2023/04/15 05:52:31;;;;;;;9.10;3.60;;;;;;;;;;4989937;28;20038;-68
2023/04/15 05:54:58;;;;;;;12.55;3.75;;;;;;;;;;4981265;28;20124;-67
2023/04/15 05:57:24;;;;;;;14.27;3.65;;;;;;;;;;4968004;28;20523;-65
2023/04/15 05:59:51;;;;;;;8.65;3.75;;;;;;;;;;4980549;28;20042;-66
2023/04/15 06:02:18;;;;;;;10.00;4.03;;;;;;;;;;4981289;28;20102;-66
2023/04/15 06:04:45;;;;;;;10.88;4.13;;;;;;;;;;4980973;28;20042;-65
2023/04/15 06:07:11;;;;;;;10.30;4.40;;;;;;;;;;4979120;28;20042;-68
2023/04/15 06:09:38;;;;;;;11.48;4.90;;;;;;;;;;4978413;28;20108;-66
2023/04/15 06:12:05;;;;;;;9.30;4.63;;;;;;;;;;4977623;28;20039;-65
2023/04/15 06:14:32;;;;;;;13.80;5.63;;;;;;;;;;4977140;28;20050;-67
2023/04/15 06:16:59;;;;;;;12.68;5.60;;;;;;;;;;4979064;28;20385;-67
2023/04/15 06:19:25;;;;;;;14.35;4.30;;;;;;;;;;4978203;28;20185;-65
2023/04/15 06:21:52;;;;;;;9.98;3.83;;;;;;;;;;4978905;28;20392;-65
2023/04/15 06:24:19;;;;;;;11.43;4.20;;;;;;;;;;4980569;28;20070;-66
2023/04/15 06:26:45;;;;;;;8.63;3.70;;;;;;;;;;4979324;28;20053;-65
2023/04/15 06:29:12;;;;;;;11.55;3.70;;;;;;;;;;4979120;28;20030;-65
2023/04/15 06:31:39;;;;;;;9.73;3.30;;;;;;;;;;4976955;28;20805;-66
2023/04/15 06:34:05;;;;;;;6.22;3.30;;;;;;;;;;4979490;28;20086;-64
2023/04/15 06:36:32;;;;;;;11.70;3.63;;;;;;;;;;4979200;28;20042;-66
2023/04/15 06:38:58;;;;;;;6.50;3.03;;;;;;;;;;4979701;28;20076;-66
2023/04/15 06:41:25;;;;;;;12.23;3.22;;;;;;;;;;4979473;28;20046;-64
2023/04/15 06:43:52;;;;;;;9.73;3.90;;;;;;;;;;4983723;28;20050;-66
2023/04/15 06:46:20;;;;;;;9.93;3.63;;;;;;;;;;4971959;28;20051;-66
2023/04/15 06:48:47;;;;;;;12.50;3.88;;;;;;;;;;4960625;28;20416;-66
2023/04/15 06:51:34;;;;;;;9.48;3.40;;;;;;;;;;5012440;28;20041;-65
2023/04/15 06:54:04;;;;;;;8.05;3.13;;;;;;;;;;5015154;28;20478;-65
2023/04/15 06:56:31;;;;;;;9.32;3.08;;;;;;;;;;5013470;28;20037;-67
2023/04/15 06:58:58;;;;;;;10.63;2.95;;;;;;;;;;5014176;28;20041;-65
2023/04/15 07:01:25;;;;;;;8.95;2.67;;;;;;;;;;5012931;28;20050;-66
2023/04/15 07:03:52;;;;;;;8.73;2.55;;;;;;;;;;5015504;28;20041;-66
2023/04/15 07:06:18;;;;;;;9.38;2.83;;;;;;;;;;5015116;28;20164;-66
2023/04/15 07:08:45;;;;;;;5.88;2.40;;;;;;;;;;5014959;28;20045;-68
2023/04/15 07:11:12;;;;;;;7.95;2.80;;;;;;;;;;5011870;28;20490;-66
2023/04/15 07:13:38;;;;;;;9.45;2.53;;;;;;;;;;5014278;28;20076;-65
2023/04/15 07:16:05;;;;;;;8.63;2.22;;;;;;;;;;5015756;28;20051;-67
2023/04/15 07:18:33;;;;;;;5.30;2.17;;;;;;;;;;5015944;28;20045;-66
2023/04/15 07:21:00;;;;;;;4.82;2.10;;;;;;;;;;5015417;28;20095;-65
2023/04/15 07:23:27;;;;;;;5.38;2.20;;;;;;;;;;4992042;28;20034;-66
2023/04/15 07:26:13;;;;;;;6.03;2.38;;;;;;;;;;5010468;28;20029;-66
2023/04/15 07:28:40;;;;;;;9.32;2.72;;;;;;;;;;5007137;28;20184;-63
2023/04/15 07:31:07;;;;;;;4.30;1.92;;;;;;;;;;5009557;28;20049;-66
2023/04/15 07:33:33;;;;;;;5.53;2.28;;;;;;;;;;5009049;28;20057;-66
2023/04/15 07:36:00;;;;;;;10.35;2.30;;;;;;;;;;5008694;28;20042;-66
2023/04/15 07:38:27;;;;;;;6.43;2.90;;;;;;;;;;4992303;28;20053;-67
2023/04/15 07:40:54;;;;;;;6.72;3.00;;;;;;;;;;5009463;28;20209;-68
2023/04/15 07:43:20;;;;;;;8.48;2.95;;;;;;;;;;5010995;28;20156;-66
2023/04/15 07:45:47;;;;;;;8.93;2.95;;;;;;;;;;5010854;28;20594;-66
2023/04/15 07:48:14;;;;;;;6.82;2.92;;;;;;;;;;5007918;28;20030;-65
2023/04/15 07:50:41;;;;;;;12.88;3.20;;;;;;;;;;5007756;28;20172;-65
2023/04/15 07:53:08;;;;;;;8.68;3.20;;;;;;;;;;5008280;28;20037;-66
2023/04/15 07:55:34;;;;;;;6.35;3.05;;;;;;;;;;4998056;28;20352;-65
2023/04/15 07:58:01;;;;;;;10.55;3.42;;;;;;;;;;4989345;28;20048;-64
2023/04/15 08:00:28;;;;;;;9.75;3.47;;;;;;;;;;5007968;28;20110;-65
2023/04/15 08:02:56;;;;;;;8.75;3.30;;;;;;;;;;5005247;28;20038;-65
2023/04/15 08:05:41;;;;;;;9.10;3.70;;;;;;;;;;5007870;28;20231;-65
2023/04/15 08:08:07;;;;;;;9.55;3.17;;;;;;;;;;5006870;28;20037;-65
2023/04/15 08:10:34;;;;;;;7.25;3.92;;;;;;;;;;5008967;28;20176;-64
2023/04/15 08:13:01;;;;;;;12.30;3.58;;;;;;;;;;4994128;28;20037;-66
2023/04/15 08:15:31;;;;;;;9.20;3.78;;;;;;;;;;5007653;28;20049;-64
2023/04/15 08:17:59;;;;;;;16.17;4.30;;;;;;;;;;5010538;28;20037;-66
2023/04/15 08:20:26;;;;;;;12.07;4.72;;;;;;;;;;5009698;28;20458;-65
2023/04/15 08:22:54;;;;;;;15.88;4.47;;;;;;;;;;5007850;28;20048;-65
2023/04/15 08:25:21;;;;;;;10.60;4.70;;;;;;;;;;5007861;28;20044;-65
2023/04/15 08:27:48;;;;;;;9.38;4.47;;;;;;;;;;4992642;28;20068;-64
2023/04/15 08:30:15;;;;;;;11.40;4.25;;;;;;;;;;5008697;28;20286;-65
2023/04/15 08:32:50;;;;;;;7.80;3.83;;;;;;;;;;5006516;28;20196;-65
2023/04/15 08:35:17;;;;;;;8.55;4.40;;;;;;;;;;5006750;28;20545;-66
2023/04/15 08:37:44;;;;;;;6.93;3.83;;;;;;;;;;4977984;28;20085;-67
2023/04/15 08:40:11;;;;;;;10.80;4.57;;;;;;;;;;4971549;28;20052;-66
2023/04/15 08:42:58;;;;;;;8.25;3.90;;;;;;;;;;4946886;28;20075;-65
2023/04/15 08:45:25;;;;;;;8.95;3.78;;;;;;;;;;4946264;28;20093;-67
2023/04/15 08:47:55;;;;;;;11.07;4.65;;;;;;;;;;4931450;28;20043;-66
2023/04/15 08:50:22;;;;;;;20.77;5.15;;;;;;;;;;4945918;28;20046;-65
2023/04/15 08:52:49;;;;;;;10.70;4.53;;;;;;;;;;4947431;28;20039;-66
2023/04/15 08:55:16;;;;;;;12.93;4.32;;;;;;;;;;4948910;28;20162;-64
2023/04/15 08:57:43;;;;;;;13.52;4.95;;;;;;;;;;4943375;28;20177;-65
2023/04/15 09:00:11;;;;;;;17.15;4.72;;;;;;;;;;4949402;28;20785;-66
2023/04/15 09:02:38;;;;;;;8.40;4.05;;;;;;;;;;4944624;28;20093;-66
2023/04/15 09:05:06;;;;;;;12.68;4.60;;;;;;;;;;4948106;28;20077;-66
2023/04/15 09:07:36;;;;;;;10.70;4.80;;;;;;;;;;4947638;28;20071;-68
2023/04/15 09:10:04;;;;;;;10.05;4.53;;;;;;;;;;4946298;28;20134;-65
2023/04/15 09:12:31;;;;;;;10.07;4.40;;;;;;;;;;4947023;28;20078;-65
2023/04/15 09:14:58;;;;;;;11.68;4.55;;;;;;;;;;4975019;28;20813;-65
2023/04/15 09:17:26;;;;;;;8.90;3.70;;;;;;;;;;4979689;28;20030;-64
2023/04/15 09:20:09;;;;;;;14.32;4.65;;;;;;;;;;4985702;28;20094;-67
2023/04/15 09:22:39;;;;;;;15.80;4.72;;;;;;;;;;4981010;28;20133;-66
2023/04/15 09:25:18;;;;;;;11.60;4.45;;;;;;;;;;4978436;28;20073;-67
2023/04/15 09:27:55;;;;;;;7.00;3.75;;;;;;;;;;4984509;28;20122;-66
2023/04/15 09:30:23;;;;;;;9.75;4.30;;;;;;;;;;4985652;28;20124;-66
2023/04/15 09:32:54;;;;;;;11.40;4.75;;;;;;;;;;4972982;28;20129;-66
2023/04/15 09:35:41;;;;;;;11.65;5.20;;;;;;;;;;5018617;28;20541;-65
2023/04/15 09:38:08;;;;;;;11.35;5.55;;;;;;;;;;5017668;28;20045;-64
2023/04/15 09:40:40;;;;;;;11.43;5.50;;;;;;;;;;4985492;28;20152;-66
2023/04/15 09:43:08;;;;;;;13.45;5.40;;;;;;;;;;5014053;28;20053;-67
2023/04/15 09:45:36;;;;;;;10.93;5.45;;;;;;;;;;5017420;28;20565;-64
2023/04/15 09:48:15;;;;;;;13.25;5.50;;;;;;;;;;4995831;28;21667;-65
2023/04/15 09:50:42;;;;;;;18.00;5.80;;;;;;;;;;5000408;28;20056;-66
2023/04/15 09:53:13;;;;;;;10.80;5.70;;;;;;;;;;5017943;28;20056;-65
2023/04/15 09:55:41;;;;;;;9.38;5.38;;;;;;;;;;5017667;28;20052;-66
2023/04/15 09:58:18;;;;;;;12.63;5.47;;;;;;;;;;4996047;28;20073;-64
2023/04/15 10:00:46;;;;;;;15.27;5.90;;;;;;;;;;5016715;28;20185;-66
2023/04/15 10:03:14;;;;;;;10.93;5.72;;;;;;;;;;5018860;28;20041;-65
2023/04/15 10:05:40;;;;;;;9.98;4.47;;;;;;;;;;5012417;28;20041;-64
2023/04/15 10:08:08;;;;;;;13.98;4.72;;;;;;;;;;4973390;28;20129;-65
2023/04/15 10:10:34;;;;;;;8.85;4.10;;;;;;;;;;4979282;28;20177;-65
2023/04/15 10:13:03;;;;;;;10.35;3.63;;;;;;;;;;4980279;28;20494;-65
2023/04/15 10:15:30;;;;;;;7.55;3.97;;;;;;;;;;4970210;28;20054;-64
2023/04/15 10:17:58;;;;;;;12.60;3.83;;;;;;;;;;4982773;28;20785;-64
2023/04/15 10:20:25;;;;;;;7.03;3.28;;;;;;;;;;4979282;28;20112;-65
2023/04/15 10:22:53;;;;;;;7.20;3.60;;;;;;;;;;4978376;28;20888;-66
2023/04/15 10:25:19;;;;;;;7.97;3.13;;;;;;;;;;4979888;28;20042;-66
2023/04/15 10:27:47;;;;;;;8.98;3.30;;;;;;;;;;4969161;28;20068;-67
2023/04/15 10:30:15;;;;;;;7.32;2.70;;;;;;;;;;4978238;28;20048;-65
2023/04/15 10:32:42;;;;;;;6.38;2.72;;;;;;;;;;4971936;28;20418;-65
2023/04/15 10:35:09;;;;;;;8.02;3.13;;;;;;;;;;4994774;28;20081;-65
2023/04/15 10:37:36;;;;;;;9.30;2.90;;;;;;;;;;4978014;28;20038;-64
2023/04/15 10:40:21;;;;;;;6.60;3.00;;;;;;;;;;4987315;28;20042;-64
2023/04/15 10:42:48;;;;;;;5.60;2.50;;;;;;;;;;4986493;28;21989;-65
2023/04/15 10:45:18;;;;;;;5.00;2.47;;;;;;;;;;4988376;28;20490;-66
2023/04/15 10:47:45;;;;;;;5.35;2.40;;;;;;;;;;4977983;28;20081;-65
2023/04/15 10:50:12;;;;;;;5.65;2.50;;;;;;;;;;4968003;28;20519;-64
2023/04/15 10:52:41;;;;;;;7.03;2.50;;;;;;;;;;4965590;28;20046;-65
2023/04/15 10:55:10;;;;;;;7.78;2.22;;;;;;;;;;4986711;28;20080;-65
2023/04/15 10:57:38;;;;;;;6.70;2.45;;;;;;;;;;4987299;28;20414;-65
2023/04/15 11:00:10;;;;;;;6.35;2.20;;;;;;;;;;4985521;28;20430;-65
2023/04/15 11:02:39;;;;;;;7.50;2.38;;;;;;;;;;4974311;28;20502;-65
2023/04/15 11:05:06;;;;;;;8.70;2.60;;;;;;;;;;4970988;28;20046;-65
2023/04/15 11:07:49;;;;;;;6.65;2.58;;;;;;;;;;4985759;28;20037;-65
2023/04/15 11:10:19;;;;;;;3.97;1.77;;;;;;;;;;4969615;28;20217;-65
2023/04/15 11:12:47;;;;;;;9.80;2.85;;;;;;;;;;4975361;28;20105;-65
2023/04/15 11:15:28;;;;;;;7.57;2.63;;;;;;;;;;4971200;28;21547;-65
2023/04/15 11:17:56;;;;;;;6.68;2.67;;;;;;;;;;4973005;28;20034;-64
2023/04/15 11:20:23;;;;;;;6.70;2.33;;;;;;;;;;4968681;28;20141;-65
2023/04/15 11:22:56;;;;;;;6.32;2.15;;;;;;;;;;4992210;28;20582;-64
2023/04/15 11:25:23;;;;;;;5.20;2.03;;;;;;;;;;4983393;28;20053;-64
2023/04/15 11:27:51;;;;;;;6.15;2.60;;;;;;;;;;4977348;28;20042;-65
2023/04/15 11:30:37;;;;;;;5.25;2.22;;;;;;;;;;4974191;28;20045;-66
2023/04/15 11:33:05;;;;;;;5.22;1.92;;;;;;;;;;4976257;28;20598;-67
2023/04/15 11:35:32;;;;;;;10.65;2.20;;;;;;;;;;4985135;28;20153;-66
2023/04/15 11:38:02;;;;;;;7.32;1.95;;;;;;;;;;4979776;28;20041;-67
2023/04/15 11:40:30;;;;;;;6.35;2.40;;;;;;;;;;4987723;28;20046;-67
2023/04/15 11:43:05;;;;;;;8.13;2.50;;;;;;;;;;4976530;28;20592;-65
2023/04/15 11:45:32;;;;;;;7.82;2.53;;;;;;;;;;4979747;28;20072;-65
2023/04/15 11:48:09;;;;;;;7.22;2.03;;;;;;;;;;4988229;28;20140;-65
2023/04/15 11:50:36;;;;;;;6.28;2.17;;;;;;;;;;4985125;28;20046;-65
2023/04/15 11:53:04;;;;;;;7.88;2.45;;;;;;;;;;4986725;28;20038;-64
2023/04/15 11:55:31;;;;;;;7.63;2.30;;;;;;;;;;4977306;28;21978;-65
2023/04/15 11:58:11;;;;;;;5.00;2.10;;;;;;;;;;4987431;28;20066;-65
2023/04/15 12:00:58;;;;;;;6.63;2.20;;;;;;;;;;4987175;28;20080;-65
2023/04/15 12:03:26;;;;;;;4.50;1.77;;;;;;;;;;4994751;28;20059;-66
2023/04/15 12:06:11;;;;;;;9.57;2.30;;;;;;;;;;4996673;28;20041;-64
2023/04/15 12:08:57;;;;;;;6.90;2.63;;;;;;;;;;4996065;28;20037;-65
2023/04/15 12:11:27;;;;;;;9.27;2.17;;;;;;;;;;4997913;28;20045;-65
2023/04/15 12:13:58;;;;;;;8.00;2.50;;;;;;;;;;4998652;28;20046;-65
2023/04/15 12:16:25;;;;;;;4.78;2.13;;;;;;;;;;4997297;28;20626;-64
2023/04/15 12:18:56;;;;;;;6.90;2.30;;;;;;;;;;4969943;28;20096;-66
2023/04/15 12:21:23;;;;;;;6.28;2.30;;;;;;;;;;4994804;28;20345;-65
2023/04/15 12:23:54;;;;;;;6.32;2.00;;;;;;;;;;4996867;28;20121;-65
2023/04/15 12:26:28;;;;;;;7.07;2.08;;;;;;;;;;4994948;28;20176;-65
2023/04/15 12:28:58;;;;;;;11.20;2.22;;;;;;;;;;4994167;28;20046;-64
2023/04/15 12:31:24;;;;;;;6.15;2.10;;;;;;;;;;4996068;28;20042;-64
2023/04/15 12:33:51;;;;;;;6.03;2.05;;;;;;;;;;4994289;28;20072;-66
2023/04/15 12:36:18;;;;;;;4.93;2.17;;;;;;;;;;4964520;28;20037;-64
2023/04/15 12:38:45;;;;;;;8.90;2.10;;;;;;;;;;4972057;28;20080;-66
2023/04/15 12:41:12;;;;;;;8.25;1.73;;;;;;;;;;4976806;28;20454;-66
2023/04/15 12:43:41;;;;;;;5.57;2.40;;;;;;;;;;4977762;28;20044;-66
2023/04/15 12:46:09;;;;;;;10.38;2.30;;;;;;;;;;4985677;28;21890;-65
2023/04/15 12:48:35;;;;;;;8.65;2.22;;;;;;;;;;4983808;28;20041;-64
2023/04/15 12:51:02;;;;;;;8.80;2.30;;;;;;;;;;4996717;28;20041;-66
2023/04/15 12:53:28;;;;;;;9.20;2.75;;;;;;;;;;4970838;28;20039;-65
2023/04/15 12:55:55;;;;;;;8.15;2.30;;;;;;;;;;4974577;28;20051;-66
2023/04/15 12:58:22;;;;;;;7.03;2.35;;;;;;;;;;4990915;28;20030;-66
2023/04/15 13:00:49;;;;;;;9.57;2.00;;;;;;;;;;4978013;28;20043;-65
2023/04/15 13:03:16;;;;;;;9.68;2.65;;;;;;;;;;4978759;28;20958;-64
2023/04/15 13:05:43;;;;;;;9.82;2.58;;;;;;;;;;4978367;28;20243;-66
2023/04/15 13:08:10;;;;;;;9.05;2.45;;;;;;;;;;4991620;28;20559;-66
2023/04/15 13:10:37;;;;;;;6.45;2.15;;;;;;;;;;4978281;28;20030;-66
2023/04/15 13:13:03;;;;;;;14.98;2.75;;;;;;;;;;4980976;28;20073;-65
2023/04/15 13:15:30;;;;;;;6.57;2.30;;;;;;;;;;4979595;28;20155;-65
2023/04/15 13:18:00;;;;;;;13.38;2.20;;;;;;;;;;4978584;28;20034;-64
2023/04/15 13:20:27;;;;;;;9.43;2.50;;;;;;;;;;4965391;28;20042;-67
2023/04/15 13:22:54;;;;;;;4.28;1.85;;;;;;;;;;4977904;28;20070;-67
2023/04/15 13:25:21;;;;;;;5.97;2.10;;;;;;;;;;4972670;28;20070;-67
2023/04/15 13:27:48;;;;;;;10.70;2.40;;;;;;;;;;4978686;28;20570;-65
2023/04/15 13:30:14;;;;;;;7.90;2.38;;;;;;;;;;4976935;28;20133;-64
2023/04/15 13:32:41;;;;;;;7.75;1.83;;;;;;;;;;4975990;28;20096;-64
2023/04/15 13:35:08;;;;;;;5.45;2.10;;;;;;;;;;4987935;28;20057;-65
2023/04/15 13:37:35;;;;;;;4.88;1.92;;;;;;;;;;4975812;28;20053;-63
2023/04/15 13:40:02;;;;;;;5.38;2.15;;;;;;;;;;4977015;28;20057;-62
2023/04/15 13:42:29;;;;;;;9.45;2.60;;;;;;;;;;4977239;28;20049;-63
2023/04/15 13:44:56;;;;;;;7.07;2.40;;;;;;;;;;4977045;28;20062;-64
2023/04/15 13:47:23;;;;;;;8.63;2.45;;;;;;;;;;4976434;28;20038;-63
2023/04/15 13:49:53;;;;;;;10.30;2.83;;;;;;;;;;4975511;28;20057;-62
2023/04/15 13:52:19;;;;;;;7.75;2.50;;;;;;;;;;4975284;28;20042;-64
2023/04/15 13:54:46;;;;;;;10.27;2.53;;;;;;;;;;4976271;28;20046;-63
2023/04/15 13:57:13;;;;;;;7.95;2.47;;;;;;;;;;4975575;28;20341;-63
2023/04/15 13:59:39;;;;;;;11.27;2.63;;;;;;;;;;4975441;28;20061;-64
2023/04/15 14:02:06;;;;;;;8.43;2.33;;;;;;;;;;4973981;28;20049;-64
2023/04/15 14:04:33;;;;;;;11.50;2.30;;;;;;;;;;4976219;28;20042;-64
2023/04/15 14:07:00;;;;;;;5.72;2.15;;;;;;;;;;4979874;28;20069;-63
2023/04/15 14:09:27;;;;;;;7.75;2.40;;;;;;;;;;4976778;28;20051;-63
2023/04/15 14:11:53;;;;;;;5.18;2.17;;;;;;;;;;4979836;28;20035;-64
2023/04/15 14:14:20;;;;;;;4.57;1.98;;;;;;;;;;4979985;28;20054;-65
2023/04/15 14:16:47;;;;;;;8.77;2.50;;;;;;;;;;4979503;28;20057;-64
2023/04/15 14:19:14;;;;;;;7.18;2.20;;;;;;;;;;4979030;28;20035;-61
2023/04/15 14:21:41;;;;;;;7.35;2.20;;;;;;;;;;4978224;28;20046;-63
2023/04/15 14:24:08;;;;;;;4.97;2.30;;;;;;;;;;4979952;28;20446;-63
2023/04/15 14:26:35;;;;;;;5.43;2.25;;;;;;;;;;4981051;28;20038;-64
2023/04/15 14:29:02;;;;;;;11.50;3.05;;;;;;;;;;4980727;28;20070;-65
2023/04/15 14:31:28;;;;;;;8.00;2.88;;;;;;;;;;4979687;28;20045;-65
2023/04/15 14:33:55;;;;;;;7.80;2.95;;;;;;;;;;4980751;28;20470;-64
2023/04/15 14:36:21;;;;;;;6.20;2.70;;;;;;;;;;4979080;28;20045;-65
2023/04/15 14:38:48;;;;;;;7.90;2.88;;;;;;;;;;4979436;28;20500;-65
2023/04/15 14:41:16;;;;;;;5.82;2.75;;;;;;;;;;4980392;28;20042;-63
2023/04/15 14:43:42;;;;;;;7.35;2.65;;;;;;;;;;4979904;28;20038;-63